Home > Products > Valid Products > TAF

000
FTUS45 KFGZ 230500
TAFINW
TAF
KINW 230532Z 2306/2406 16006KT P6SM SKC
     FM231900 24012G17KT P6SM FEW070
     FM240130 22011KT P6SM FEW070=



000
FTUS45 KFGZ 230500
TAFFLG
TAF
KFLG 230532Z 2306/2406 25005KT P6SM SCT030
      TEMPO 2306/2310 BKN025
     FM231800 23010G16KT P6SM SCT040
     FM240200 23004KT P6SM FEW040=



000
FTUS45 KFGZ 230500
TAFPGA
TAF
KPGA 230532Z 2306/2406 22006KT P6SM BKN100
     FM231800 27008G15KT P6SM SCT080
     FM240300 28006KT P6SM FEW080=



000
FTUS45 KFGZ 222300
TAFPGA
TAF
KPGA 222323Z 2300/2324 22008KT P6SM BKN100
     FM230600 22006KT P6SM FEW050
     FM231800 25008G15KT P6SM BKN080=



000
FTUS45 KFGZ 222300
TAFINW
TAF
KINW 222323Z 2300/2324 22011G17KT P6SM FEW060 BKN120
     FM230400 20006KT P6SM FEW050
     FM231900 23010G16KT P6SM FEW070=



000
FTUS45 KFGZ 222300
TAFFLG
TAF
KFLG 222323Z 2300/2324 22009KT P6SM FEW040 SCT050 BKN070
     FM230300 VRB03KT P6SM SCT030
     FM231800 23010G16KT P6SM FEW040=



000
FTUS45 KFGZ 222200 AAB
TAFFLG
TAF AMD
KFLG 222209Z 2222/2318 22009KT P6SM SCT040 BKN070
      TEMPO 2222/2223 BKN040
     FM230200 VRB03KT P6SM SCT030=



000
FTUS45 KFGZ 222000 AAA
TAFPGA
TAF AMD
KPGA 222027Z 2220/2318 03006KT P6SM VCSH SCT060 BKN120
     FM222300 23009KT P6SM SCT090=



000
FTUS45 KFGZ 222000 AAA
TAFINW
TAF AMD
KINW 222021Z 2220/2318 30015KT P6SM FEW060 BKN110
     FM222200 26011G17KT P6SM FEW060 BKN120
     FM230300 22008KT P6SM FEW050=



000
FTUS45 KFGZ 221900 AAA
TAFFLG
TAF AMD
KFLG 221922Z 2219/2318 22009KT P6SM SCT030 BKN070
      TEMPO 2219/2223 -SHRA BKN030
     FM230200 VRB03KT P6SM SCT030=



000
FTUS45 KFGZ 221700
TAFINW
TAF
KINW 221720Z 2218/2318 23011G16KT P6SM SCT060 BKN120
      TEMPO 2219/2223 VRB15G25KT 5SM -TSRA BKN060CB
     FM230300 VRB05KT P6SM FEW050=



000
FTUS45 KFGZ 221700
TAFPGA
TAF
KPGA 221720Z 2218/2318 03006KT P6SM SCT060 BKN120
     FM222200 23009KT P6SM SCT090
     FM230200 VRB03KT P6SM SCT030=



000
FTUS45 KFGZ 221700
TAFFLG
TAF
KFLG 221720Z 2218/2318 22009KT P6SM FEW020 SCT030 BKN070
      TEMPO 2218/2222 -SHRA BKN020
     FM230200 VRB03KT P6SM SCT030=



000
FTUS45 KFGZ 221600 AAA
TAFFLG
TAF AMD
KFLG 221644Z 2217/2312 23005KT P6SM VCSH SCT025 BKN070
      TEMPO 2217/2218 BKN010
     FM221800 22009KT P6SM SCT030 BKN070
     FM230200 VRB03KT P6SM SCT030=



000
FTUS45 KFGZ 221100
TAFFLG
TAF
KFLG 221139Z 2212/2312 VRB03KT P6SM VCSH FEW013 SCT035 BKN060
      TEMPO 2212/2215 4SM -SHRA BR SCT004 BKN009 OVC060
     FM221600 22009KT P6SM VCSH SCT035 BKN150 PROB30 2221/2301 5SM
      -TSRA FEW012 BKN025CB
     FM230200 VRB03KT P6SM SCT030=



000
FTUS45 KFGZ 221100
TAFPGA
TAF
KPGA 221139Z 2212/2312 VRB02KT P6SM SCT110
     FM221600 VRB06KT P6SM SCT060 SCT120
     FM230200 VRB03KT P6SM SCT030=



000
FTUS45 KFGZ 221100
TAFINW
TAF
KINW 221139Z 2212/2312 VRB05KT P6SM SCT110
     FM221700 23011G20KT P6SM SCT060
     FM230200 VRB05KT P6SM FEW050=



000
FTUS45 KFGZ 220900 AAA
TAFFLG
TAF AMD
KFLG 220952Z 2210/2306 VRB03KT P6SM VCSH SCT013 SCT035 BKN060
      TEMPO 2210/2211 4SM -SHRA BKN004 OVC035
     FM221500 22007KT P6SM VCSH BKN025 BKN150
     FM221900 22012KT P6SM BKN035 BKN150=



000
FTUS45 KFGZ 220500
TAFFLG
TAF
KFLG 220520Z 2206/2306 VRB03KT P6SM VCSH BKN060 BKN150
      TEMPO 2206/2208 4SM -SHRA OVC040
     FM221500 22007KT P6SM VCSH BKN025 BKN150
     FM221900 22012KT P6SM BKN035 BKN150=



000
FTUS45 KFGZ 220500
TAFINW
TAF
KINW 220520Z 2206/2306 VRB05KT P6SM BKN110
     FM221700 23012G20KT P6SM SCT060
     FM230200 VRB05KT P6SM FEW050=



000
FTUS45 KFGZ 220500
TAFPGA
TAF
KPGA 220520Z 2206/2306 VRB06KT P6SM VCSH BKN060 OVC100
      TEMPO 2206/2209 VRB10G20KT 6SM -SHRA OVC050
     FM221600 VRB06KT P6SM SCT060 SCT120=



000
FTUS45 KFGZ 220200 AAA
TAFFLG
TAF AMD
KFLG 220233Z 2203/2224 VRB06KT P6SM VCSH SCT050 BKN060 OVC090
      TEMPO 2207/2210 3SM TSRA BR OVC030CB=



000
FTUS45 KFGZ 220000 AAA
TAFINW
TAF AMD
KINW 220054Z 2201/2224 VRB06KT P6SM -SHRA BKN090 OVC110
      TEMPO 2201/2204 VRB20G30KT 5SM -TSRA BKN060CB OVC090
     FM220600 VRB05KT P6SM SCT080 BKN110
     FM221800 23010KT P6SM SCT080 SCT120=



000
FTUS45 KFGZ 212300
TAFFLG
TAF
KFLG 212322Z 2200/2224 VRB06KT P6SM -RA SCT045 BKN060
      TEMPO 2200/2204 VRB10G20KT 2SM TSRA BR OVC030CB
     FM220400 VRB06KT P6SM FEW030 BKN060
      TEMPO 2207/2210 3SM TSRA BR OVC030CB=



000
FTUS45 KFGZ 212300
TAFPGA
TAF
KPGA 212322Z 2200/2224 VRB06KT P6SM SCT080 OVC150
     FM220200 VRB06KT P6SM VCSH SCT070 BKN110
     FM221600 VRB06KT P6SM SCT070=



000
FTUS45 KFGZ 212300
TAFINW
TAF
KINW 212322Z 2200/2224 21013KT P6SM -SHRA BKN090 OVC110
      TEMPO 2200/2204 VRB20G30KT 5SM -TSRA BKN060CB OVC090
     FM220600 VRB05KT P6SM SCT080 BKN110
     FM221800 23010KT P6SM SCT080 SCT120=



000
FTUS45 KFGZ 211900 AAB
TAFFLG
TAF AMD
KFLG 211942Z 2120/2218 22007KT P6SM -SHRA VCTS SCT060CB OVC100
      TEMPO 2120/2124 VRB15G25KT 4SM TSRA BR OVC030CB
     FM220000 VRB04KT P6SM SCT045 BKN080
      TEMPO 2200/2204 VRB15G25KT 4SM TSRA BR OVC025CB=



000
FTUS45 KFGZ 211800 AAA
TAFFLG
TAF AMD
KFLG 211816Z 2118/2218 22008KT P6SM VCTS SCT060CB OVC100
      TEMPO 2120/2124 VRB15G25KT 3SM TSRA BR OVC030CB
     FM220000 VRB04KT P6SM SCT045 BKN080
      TEMPO 2200/2204 VRB15G25KT 3SM TSRA BR OVC025CB=



000
FTUS45 KFGZ 211700
TAFPGA
TAF
KPGA 211735Z 2118/2218 VRB03KT P6SM FEW110
     FM212000 VRB06KT P6SM SCT080 OVC150
      TEMPO 2122/2202 VRB15G25KT 5SM -TSRA BKN060CB
     FM220200 VRB06KT P6SM SCT070 BKN110=



000
FTUS45 KFGZ 211700
TAFFLG
TAF
KFLG 211735Z 2118/2218 22008KT P6SM SCT050 OVC100
      TEMPO 2121/2201 VRB15G25KT 3SM TSRA BR OVC030CB
     FM220100 VRB04KT P6SM SCT045 BKN080
      TEMPO 2201/2205 VRB15G25KT 3SM TSRA BR OVC025CB=



000
FTUS45 KFGZ 211700
TAFINW
TAF
KINW 211735Z 2118/2218 20007KT P6SM SCT080 BKN120
      TEMPO 2122/2202 VRB20G30KT 4SM -TSRA BKN060CB OVC110
     FM220600 VRB05KT P6SM SCT080 BKN110=



000
FTUS45 KFGZ 211100
TAFFLG
TAF
KFLG 211136Z 2112/2212 VRB03KT P6SM SCT100
     FM211900 22008KT P6SM VCTS BKN050CB OVC090
      TEMPO 2122/2202 VRB15G25KT 2SM TSRA BR OVC030CB
     FM220200 VRB02KT P6SM SCT045 BKN080
      TEMPO 2202/2206 VRB15G25KT 2SM TSRA BR OVC025CB=



000
FTUS45 KFGZ 211100
TAFPGA
TAF
KPGA 211136Z 2112/2212 VRB03KT P6SM FEW110
     FM212000 VRB06KT P6SM SCT080 OVC150 PROB30 2122/2204 VRB15G25KT
      5SM -TSRA BKN060CB=



000
FTUS45 KFGZ 211100
TAFINW
TAF
KINW 211136Z 2112/2212 VRB03KT P6SM SCT110
     FM211900 20010KT P6SM BKN080 BKN120
      TEMPO 2122/2202 VRB20G30KT 4SM -TSRA BKN060CB OVC110
     FM220600 VRB05KT P6SM SCT080 BKN110=



000
FTUS45 KFGZ 210500
TAFINW
TAF
KINW 210520Z 2106/2206 VRB03KT P6SM SCT090
     FM211900 20010KT P6SM SCT080 BKN140
      TEMPO 2122/2202 VRB20G30KT 4SM -TSRA BKN060CB OVC110=



000
FTUS45 KFGZ 210500
TAFPGA
TAF
KPGA 210520Z 2106/2206 VRB03KT P6SM FEW110
     FM212000 VRB06KT P6SM VCSH SCT080 OVC150=



000
FTUS45 KFGZ 210500
TAFFLG
TAF
KFLG 210520Z 2106/2206 VRB03KT P6SM SCT100
     FM211900 22010KT P6SM VCTS BKN050CB OVC090
      TEMPO 2122/2201 VRB15G25KT 2SM TSRA BR OVC030CB=



000
FTUS45 KFGZ 210200 AAA
TAFINW
TAF AMD
KINW 210208Z 2102/2124 21009KT P6SM SCT110
     FM210300 VRB03KT P6SM SCT090
     FM211800 20010KT P6SM SCT080 BKN120 PROB30 2120/2124 5SM -TSRA
      BKN080CB=



000
FTUS45 KFGZ 202300
TAFINW
TAF
KINW 202324Z 2100/2124 14009KT P6SM SCT110
     FM210300 VRB03KT P6SM SCT090
     FM211800 20010KT P6SM SCT080 BKN120 PROB30 2120/2124 5SM -TSRA
      BKN080CB=



000
FTUS45 KFGZ 202300
TAFFLG
TAF
KFLG 202324Z 2100/2124 23008KT P6SM VCTS SCT040CB BKN110
     FM210300 VRB03KT P6SM SCT070
     FM211800 19006KT P6SM VCTS SCT050CB SCT100
      TEMPO 2120/2124 VRB15G25KT 4SM TSRA BKN040CB=



000
FTUS45 KFGZ 202300
TAFPGA
TAF
KPGA 202324Z 2100/2124 VRB05KT P6SM SCT040 BKN090
      TEMPO 2100/2102 6SM -TSRA BKN060CB
     FM210300 20005KT P6SM FEW090
     FM212000 VRB06KT P6SM SCT080 BKN120 PROB30 2121/2124 5SM -TSRA
      BKN070CB=



000
FTUS45 KFGZ 202200 AAA
TAFFLG
TAF AMD
KFLG 202231Z 2023/2118 22010KT P6SM VCTS SCT060CB BKN120
     FM210300 VRB03KT P6SM SCT070=



000
FTUS45 KFGZ 202200 AAA
TAFINW
TAF AMD
KINW 202228Z 2022/2118 VRB06KT P6SM SCT080 BKN110
      TEMPO 2022/2024 VRB15G25KT 6SM -TSRA BKN080CB
     FM210300 VRB03KT P6SM SCT090=



000
FTUS45 KFGZ 202200 AAA
TAFPGA
TAF AMD
KPGA 202217Z 2022/2118 VRB05KT P6SM BKN080 OVC120
      TEMPO 2022/2024 VRB10G25KT 5SM -TSRA BKN070CB
     FM210300 VRB03KT P6SM SCT090=



000
FTUS45 KFGZ 201700 RRA
TAFINW
TAF
KINW 201741Z 2018/2118 VRB06KT P6SM SCT110
     FM202100 25009KT P6SM BKN120
     FM210300 VRB03KT P6SM SCT090=



000
FTUS45 KFGZ 201700 RRA
TAFFLG
TAF
KFLG 201741Z 2018/2118 VRB03KT P6SM FEW060 SCT110
     FM201900 22008KT P6SM VCTS BKN060CB
      TEMPO 2020/2024 VRB15G25KT 3SM TSRA BKN030CB
     FM210300 VRB03KT P6SM SCT070=



000
FTUS45 KFGZ 201700 RRA
TAFPGA
TAF
KPGA 201741Z 2018/2118 VRB05KT P6SM SCT080 SCT110
     FM210300 VRB03KT P6SM FEW090=



000
FTUS45 KFGZ 201100 RRA
TAFPGA
TAF
KPGA 201144Z 2012/2112 VRB05KT P6SM SCT080 SCT110
     FM210300 VRB03KT P6SM FEW090=



000
FTUS45 KFGZ 201100 RRA
TAFINW
TAF
KINW 201144Z 2012/2112 VRB06KT P6SM SCT110
     FM202000 25009KT P6SM BKN110
     FM210300 VRB03KT P6SM SCT090=



000
FTUS45 KFGZ 201100 RRA
TAFFLG
TAF
KFLG 201144Z 2012/2112 VRB03KT P6SM FEW015 SCT110
      TEMPO 2012/2015 1SM BR FEW003 BKN013
     FM201900 22008KT P6SM VCTS BKN060CB
      TEMPO 2020/2024 VRB15G25KT 3SM TSRA BKN030CB
     FM210300 VRB03KT P6SM SCT070=



    US Dept of Commerce
    National Oceanic and Atmospheric Administration
    National Weather Service
    1325 East West Highway
    Silver Spring, MD 20910
    Page Author: NWS Internet Services Team
Disclaimer
Information Quality
Credits
Glossary
Privacy Policy
Freedom of Information Act (FOIA)
About Us
Career Opportunities